首页
METAR-TAF:

METAR-TAF

机场 :

Northeast Philadelphia Airport

費城, 宾夕法尼亚州, 美国

纬度: 40-04-44N, 经度: 075-00-49W, 海拔: 36米

当前天气观测

该预报发布于37分钟前的14:54 UTC
风速7节,风向东南
温度 26°C
湿度 74%
气压 1014 hPa
能見度: 11.3公里
多云层高于1000英尺

METAR: KPNE 181454Z 14007KT 7SM BKN010 26/21 A2993 RMK AO2 SLP134 T02610211 58008 $

时间: 11:31 (15:31 UTC)

预报

该预报发布于1小时和49分钟前的13:42 UTC
预报有效从18日的 14点(UTC)到 19日的 12点(UTC)
风速3节,风向东转东南
能見度: 6.4公里
多云层高于500英尺
阴天层高于1200英尺
轻雾, 附近有阵雨
从 18日的 1700点(UTC)
风速4节,风向
能見度: 10公里
多云层高于1500英尺
附近有阵雨
从 18日的 2000点(UTC)
风速9节,风向西
能見度: 10公里
多云层高于3500英尺, 积雨云.
阵雨, 附近有雷暴
从 19日的 0000点(UTC)
风速5节,风向西
能見度: 10公里
多云层高于4000英尺
附近有阵雨
从 19日的 0600点(UTC)
风速3节,风向多变
能見度: 4.8公里
阴天层高于700英尺
轻雾

TAF: KPNE 181342Z 1814/1912 12003KT 4SM BR VCSH BKN005 OVC012 FM181700 19004KT P6SM VCSH BKN015 FM182000 27009KT P6SM SHRA VCTS BKN035CB FM190000 28005KT P6SM VCSH BKN040 FM190600 VRB03KT 3SM BR OVC007

超过4000个机场的气象观测和天气预报(METAR&TAF报告)。

可查询的气象台以黄色和红色小点在地图上表示。

将鼠标移到小点上方,可查看气象台名称。

然后点击查看天气观测和预报。

如需切换地图:点击带黑十字的绿色按钮放大地图;点击带横线的绿色按钮缩小地图;或者点击绿色箭头查看邻近地区的地图。


METAR-TAF: